Time;durP1;ratioP1;P1;durP2;ratioP2;P2;SDS_P1;SDS_P2;PMS_P1;PMS_P2;Temp;Humidity;BMP_temperature;BMP_pressure;BME280_temperature;BME280_humidity;BME280_pressure;Samples;Min_cycle;Max_cycle;Signal;HPM_P1;HPM_P2
2023/10/12 00:00:55;;;;;;;11.32;3.03;;;19.50;91.50;;;;;;4958745;28;20058;-82
2023/10/12 00:03:21;;;;;;;7.72;3.90;;;19.70;91.60;;;;;;4955891;28;20073;-83
2023/10/12 00:05:46;;;;;;;6.28;3.08;;;19.60;91.60;;;;;;4960905;28;20045;-83
2023/10/12 00:08:29;;;;;;;15.10;4.75;;;19.50;91.60;;;;;;4974351;28;20038;-83
2023/10/12 00:10:55;;;;;;;15.57;2.97;;;19.50;91.70;;;;;;4981258;28;20030;-82
2023/10/12 00:13:27;;;;;;;8.50;3.28;;;19.50;91.60;;;;;;4963848;28;20422;-84
2023/10/12 00:15:55;;;;;;;4.85;2.97;;;19.60;91.60;;;;;;4959575;28;20072;-82
2023/10/12 00:18:22;;;;;;;10.45;3.47;;;19.60;91.60;;;;;;4959630;28;20035;-82
2023/10/12 00:20:54;;;;;;;7.93;3.33;;;19.60;91.90;;;;;;4960660;28;20042;-83
2023/10/12 00:23:19;;;;;;;15.20;4.35;;;19.50;92.10;;;;;;4963375;28;20042;-83
2023/10/12 00:25:55;;;;;;;9.57;3.33;;;19.50;92.30;;;;;;4962687;28;20038;-83
2023/10/12 00:28:21;;;;;;;6.50;2.83;;;19.40;92.10;;;;;;4943037;28;20041;-82
2023/10/12 00:30:54;;;;;;;12.35;4.03;;;19.40;92.20;;;;;;4944912;28;20053;-83
2023/10/12 00:33:20;;;;;;;12.98;4.05;;;19.30;92.30;;;;;;4961921;28;20497;-83
2023/10/12 00:35:50;;;;;;;5.97;2.15;;;19.30;92.20;;;;;;4974025;28;20042;-83
2023/10/12 00:38:17;;;;;;;8.18;5.07;;;19.30;92.00;;;;;;4946531;28;20057;-83
2023/10/12 00:40:56;;;;;;;12.07;3.50;;;19.30;92.20;;;;;;4961569;28;20085;-83
2023/10/12 00:43:21;;;;;;;13.70;3.20;;;19.30;92.30;;;;;;4972354;28;20061;-83
2023/10/12 00:45:47;;;;;;;7.63;3.67;;;19.30;92.20;;;;;;4977002;28;20042;-83
2023/10/12 00:48:16;;;;;;;9.40;3.63;;;19.20;92.10;;;;;;4981866;28;20089;-82
2023/10/12 00:50:44;;;;;;;8.40;3.90;;;19.20;92.90;;;;;;4974554;28;20046;-83
2023/10/12 00:53:22;;;;;;;13.32;4.10;;;19.10;92.90;;;;;;4958710;28;20472;-83
2023/10/12 00:55:48;;;;;;;5.18;3.45;;;19.00;93.10;;;;;;4974198;28;20035;-83
2023/10/12 00:58:14;;;;;;;8.75;3.33;;;18.90;93.50;;;;;;4960266;28;20057;-83
2023/10/12 01:00:45;;;;;;;9.30;4.85;;;18.80;93.70;;;;;;4957143;28;20050;-83
2023/10/12 01:03:28;;;;;;;7.63;3.78;;;18.70;93.60;;;;;;4958999;28;20038;-83
2023/10/12 01:06:13;;;;;;;10.55;4.25;;;18.60;94.20;;;;;;4947702;28;20766;-82
2023/10/12 01:08:42;;;;;;;11.25;3.50;;;18.50;94.00;;;;;;4977363;28;20258;-82
2023/10/12 01:11:18;;;;;;;8.25;3.92;;;18.50;94.70;;;;;;4957784;28;20046;-82
2023/10/12 01:13:49;;;;;;;;;;;18.40;94.60;;;;;;4959581;28;20086;-82
2023/10/12 01:16:22;;;;;;;8.20;4.07;;;18.40;94.70;;;;;;4975155;28;19914;-82
2023/10/12 01:18:51;;;;;;;6.32;3.97;;;18.40;94.80;;;;;;4958381;28;20565;-82
2023/10/12 01:21:16;;;;;;;10.90;4.13;;;18.30;94.90;;;;;;4965005;28;20038;-82
2023/10/12 01:23:50;;;;;;;6.57;3.17;;;18.40;94.90;;;;;;4958866;28;20034;-83
2023/10/12 01:26:16;;;;;;;7.32;4.30;;;18.30;94.70;;;;;;4960208;28;20041;-81
2023/10/12 01:28:45;;;;;;;6.28;4.28;;;18.30;94.90;;;;;;4977665;28;20678;-82
2023/10/12 01:31:11;;;;;;;6.60;2.63;;;18.30;94.80;;;;;;4958700;28;20045;-82
2023/10/12 01:33:41;;;;;;;8.70;3.78;;;18.30;94.80;;;;;;4972618;28;20026;-82
2023/10/12 01:36:07;;;;;;;10.68;3.95;;;18.30;94.90;;;;;;4974735;28;20038;-81
2023/10/12 01:38:37;;;;;;;7.55;4.18;;;18.30;95.10;;;;;;4973262;28;20031;-81
2023/10/12 01:41:09;;;;;;;6.95;3.42;;;18.20;95.00;;;;;;4954872;28;20056;-82
2023/10/12 01:43:35;;;;;;;6.82;3.38;;;18.10;95.10;;;;;;4968237;28;20033;-82
2023/10/12 01:46:07;;;;;;;8.07;4.38;;;18.10;95.40;;;;;;4976199;28;20041;-81
2023/10/12 01:48:37;;;;;;;13.68;5.38;;;18.10;95.30;;;;;;4975369;28;20030;-81
2023/10/12 01:51:24;;;;;;;9.82;5.00;;;17.90;95.40;;;;;;4932945;28;1083143;-82
2023/10/12 01:53:55;;;;;;;18.85;5.13;;;17.90;95.10;;;;;;4957938;28;20755;-82
2023/10/12 01:56:20;;;;;;;9.55;4.72;;;17.90;95.20;;;;;;4939672;28;20045;-81
2023/10/12 01:58:49;;;;;;;12.93;5.25;;;17.70;95.20;;;;;;4975086;28;20030;-81
2023/10/12 02:01:18;;;;;;;8.85;5.30;;;17.70;95.40;;;;;;4974490;28;20033;-81
2023/10/12 02:03:44;;;;;;;15.55;5.43;;;17.50;95.50;;;;;;4961459;28;20499;-82
2023/10/12 02:06:22;;;;;;;11.48;6.13;;;17.60;95.90;;;;;;4978737;28;20050;-81
2023/10/12 02:08:52;;;;;;;12.88;6.15;;;17.60;96.30;;;;;;4958698;28;20030;-82
2023/10/12 02:13:47;;;;;;;13.05;5.53;;;17.50;96.10;;;;;;4974600;28;20038;-82
2023/10/12 02:16:13;;;;;;;11.65;6.82;;;17.40;96.50;;;;;;4961977;28;20076;-83
2023/10/12 02:18:39;;;;;;;10.55;5.95;;;17.20;97.10;;;;;;4977535;28;20037;-84
2023/10/12 02:23:36;;;;;;;11.77;6.25;;;17.10;97.70;;;;;;4976681;28;20149;-83
2023/10/12 02:26:28;;;;;;;13.07;6.70;;;17.10;97.90;;;;;;4963266;28;20038;-83
2023/10/12 02:28:49;;;;;;;10.02;5.90;;;16.90;98.70;;;;;;4978126;28;20033;-83
2023/10/12 02:31:14;;;;;;;9.90;5.38;;;16.80;98.10;;;;;;4963645;28;20117;-84
2023/10/12 02:33:43;;;;;;;12.18;7.03;;;16.90;97.90;;;;;;4979613;28;20095;-83
2023/10/12 02:36:09;;;;;;;12.32;6.72;;;16.90;99.00;;;;;;4973690;28;20049;-83
2023/10/12 02:38:35;;;;;;;10.48;5.97;;;16.90;98.30;;;;;;4976929;28;20114;-83
2023/10/12 02:41:01;;;;;;;16.02;8.05;;;16.90;98.50;;;;;;4960477;28;20070;-83
2023/10/12 02:43:28;;;;;;;15.02;8.52;;;16.80;99.90;;;;;;4975374;28;20129;-82
2023/10/12 02:45:59;;;;;;;12.73;7.85;;;16.80;99.80;;;;;;4958686;28;20037;-83
2023/10/12 02:48:25;;;;;;;9.40;6.63;;;16.80;99.90;;;;;;4960645;28;20041;-83
2023/10/12 02:51:01;;;;;;;16.27;9.18;;;16.80;99.90;;;;;;4957725;28;20045;-82
2023/10/12 02:53:30;;;;;;;;;;;16.60;99.90;;;;;;4979180;28;20034;-82
2023/10/12 02:56:00;;;;;;;10.75;6.47;;;16.60;99.90;;;;;;4972985;28;19917;-83
2023/10/12 02:58:27;;;;;;;18.30;8.15;;;16.60;99.90;;;;;;4958050;28;20061;-82
2023/10/12 03:00:56;;;;;;;10.45;7.22;;;16.80;99.90;;;;;;4958231;28;20406;-83
2023/10/12 03:03:36;;;;;;;12.52;6.63;;;16.80;99.90;;;;;;4944530;28;20061;-82
2023/10/12 03:06:08;;;;;;;9.48;6.05;;;16.80;99.90;;;;;;4972658;28;20103;-82
2023/10/12 03:08:41;;;;;;;11.02;6.00;;;16.90;99.90;;;;;;4973175;28;20053;-82
2023/10/12 03:11:12;;;;;;;12.70;7.53;;;16.70;99.90;;;;;;4960502;28;20152;-82
2023/10/12 03:13:41;;;;;;;12.68;7.00;;;16.70;99.90;;;;;;4941331;28;20736;-83
2023/10/12 03:16:21;;;;;;;12.48;5.97;;;16.70;99.90;;;;;;4976789;28;20045;-82
2023/10/12 03:19:35;;;;;;;17.27;5.82;;;16.70;99.90;;;;;;4973698;28;20041;-82
2023/10/12 03:21:37;;;;;;;15.20;7.85;;;16.70;99.90;;;;;;4974743;28;20026;-82
2023/10/12 03:24:05;;;;;;;14.50;7.85;;;16.60;99.90;;;;;;4974053;28;20022;-82
2023/10/12 03:26:33;;;;;;;18.00;8.18;;;16.60;99.90;;;;;;4973191;28;20490;-82
2023/10/12 03:29:09;;;;;;;14.25;6.85;;;16.70;99.90;;;;;;4958619;28;20030;-82
2023/10/12 03:34:16;;;;;;;17.00;9.02;;;16.70;99.90;;;;;;4974807;28;20105;-82
2023/10/12 03:36:47;;;;;;;12.75;8.40;;;16.60;99.90;;;;;;4962614;28;20038;-82
2023/10/12 03:39:24;;;;;;;10.90;6.65;;;16.60;99.90;;;;;;4960092;28;20065;-82
2023/10/12 03:42:11;;;;;;;11.30;6.75;;;16.60;99.90;;;;;;4974447;28;20072;-82
2023/10/12 03:44:49;;;;;;;14.20;8.52;;;16.60;99.90;;;;;;4977112;28;20482;-82
2023/10/12 03:47:16;;;;;;;9.70;6.57;;;16.50;99.90;;;;;;4960380;28;20396;-82
2023/10/12 03:52:18;;;;;;;13.27;7.97;;;16.60;99.90;;;;;;4976724;28;20042;-82
2023/10/12 03:57:45;;;;;;;18.08;7.28;;;16.50;99.90;;;;;;4978619;28;20034;-82
2023/10/12 04:02:53;;;;;;;22.40;8.95;;;16.40;99.90;;;;;;4972562;28;20037;-82
2023/10/12 04:05:35;;;;;;;11.13;7.07;;;16.40;99.90;;;;;;4968771;28;20034;-82
2023/10/12 04:08:17;;;;;;;12.15;6.50;;;16.30;99.90;;;;;;4963491;28;20061;-82
2023/10/12 04:19:29;;;;;;;14.63;8.07;;;16.30;99.90;;;;;;4963869;28;20027;-81
2023/10/12 04:21:33;;;;;;;15.50;6.93;;;16.20;99.90;;;;;;4960667;28;20052;-80
2023/10/12 04:29:00;;;;;;;14.77;7.82;;;16.20;99.90;;;;;;4974055;28;20036;-81
2023/10/12 04:41:53;;;;;;;12.00;7.10;;;16.10;99.90;;;;;;4976802;28;20025;-80
2023/10/12 04:46:51;;;;;;;12.75;6.90;;;16.10;99.90;;;;;;4972852;28;20033;-80
2023/10/12 04:51:50;;;;;;;17.92;9.55;;;16.00;99.90;;;;;;4973303;28;20083;-80
2023/10/12 04:54:23;;;;;;;12.40;6.97;;;16.00;99.90;;;;;;4961564;28;20026;-81
2023/10/12 04:57:32;;;;;;;15.38;7.03;;;15.90;99.90;;;;;;4976220;28;20057;-80
2023/10/12 04:59:50;;;;;;;14.50;6.47;;;16.00;99.90;;;;;;4968710;28;20037;-80
2023/10/12 05:02:28;;;;;;;16.02;6.63;;;16.00;99.90;;;;;;4964821;28;20043;-80
2023/10/12 05:09:51;;;;;;;11.13;6.53;;;15.90;99.90;;;;;;4958582;28;20483;-79
2023/10/12 05:12:16;;;;;;;7.57;4.97;;;15.90;99.90;;;;;;4963344;28;20034;-80
2023/10/12 05:14:42;;;;;;;12.88;6.97;;;15.80;99.90;;;;;;4960532;28;20065;-80
2023/10/12 05:17:08;;;;;;;15.27;7.45;;;15.90;99.90;;;;;;4959412;28;20394;-79
2023/10/12 05:19:34;;;;;;;11.60;6.95;;;15.80;99.90;;;;;;4963539;28;20100;-81
2023/10/12 05:21:59;;;;;;;19.15;7.07;;;15.80;99.90;;;;;;4936873;28;20197;-80
2023/10/12 05:24:25;;;;;;;12.40;7.30;;;15.80;99.90;;;;;;4959862;28;20077;-80
2023/10/12 05:27:06;;;;;;;13.68;7.75;;;15.80;99.90;;;;;;4943094;28;20053;-80
2023/10/12 05:29:38;;;;;;;12.52;7.13;;;15.70;99.90;;;;;;4957731;28;20105;-80
2023/10/12 05:32:18;;;;;;;13.13;7.63;;;15.80;99.90;;;;;;4971270;28;20038;-80
2023/10/12 05:34:46;;;;;;;13.75;7.65;;;15.80;99.90;;;;;;4961916;28;20050;-80
2023/10/12 05:39:46;;;;;;;16.55;8.32;;;15.80;99.90;;;;;;4982583;28;20048;-80
2023/10/12 05:42:15;;;;;;;13.63;7.18;;;15.80;99.90;;;;;;4974857;28;20525;-80
2023/10/12 05:44:44;;;;;;;10.68;6.68;;;15.90;99.90;;;;;;4972060;28;20038;-80
2023/10/12 05:47:11;;;;;;;14.20;6.80;;;15.80;99.90;;;;;;4974359;28;20038;-80
2023/10/12 05:49:40;;;;;;;17.95;7.07;;;15.70;99.90;;;;;;4958837;28;20045;-79
2023/10/12 05:52:07;;;;;;;15.52;7.07;;;15.70;99.90;;;;;;4955421;28;20049;-80
2023/10/12 05:54:33;;;;;;;14.50;7.40;;;15.80;99.90;;;;;;4956623;28;20089;-79
2023/10/12 05:57:04;;;;;;;12.90;7.28;;;15.70;99.90;;;;;;4974760;28;20564;-79
2023/10/12 05:59:29;;;;;;;16.55;8.98;;;15.70;99.90;;;;;;4980553;28;20038;-79
2023/10/12 06:01:55;;;;;;;10.73;6.03;;;15.60;99.90;;;;;;4959577;28;20031;-78
2023/10/12 06:04:21;;;;;;;14.50;8.18;;;15.70;99.90;;;;;;4971613;28;20402;-79
2023/10/12 06:06:47;;;;;;;12.60;7.28;;;15.70;99.90;;;;;;4959766;28;20026;-78
2023/10/12 06:09:17;;;;;;;11.05;7.28;;;15.60;99.90;;;;;;4972609;28;20097;-78
2023/10/12 06:11:44;;;;;;;13.05;8.20;;;15.70;99.90;;;;;;4970566;28;20047;-79
2023/10/12 06:14:10;;;;;;;12.90;6.35;;;15.60;99.90;;;;;;4947292;28;20036;-78
2023/10/12 06:16:40;;;;;;;12.70;7.45;;;15.60;99.90;;;;;;4960876;28;20025;-78
2023/10/12 06:19:23;;;;;;;9.80;7.10;;;15.60;99.90;;;;;;4975430;28;20030;-80
2023/10/12 06:21:51;;;;;;;16.50;7.97;;;15.60;99.90;;;;;;4958739;28;20039;-78
2023/10/12 06:24:35;;;;;;;16.23;9.57;;;15.60;99.90;;;;;;4990603;28;20073;-77
2023/10/12 06:27:25;;;;;;;13.30;7.63;;;15.50;99.90;;;;;;4976219;28;20045;-78
2023/10/12 06:30:02;;;;;;;13.73;7.10;;;15.50;99.90;;;;;;4976817;28;20041;-79
2023/10/12 06:32:33;;;;;;;12.30;7.18;;;15.60;99.90;;;;;;4955423;28;20042;-78
2023/10/12 06:53:57;;;;;;;12.75;5.82;;;15.50;99.90;;;;;;4944227;28;20081;-78
2023/10/12 06:56:26;;;;;;;14.77;5.45;;;15.60;99.90;;;;;;4975203;28;20034;-79
2023/10/12 06:59:21;;;;;;;14.32;6.95;;;15.60;99.90;;;;;;4973277;28;20038;-79
2023/10/12 07:02:33;;;;;;;12.93;5.68;;;15.60;99.90;;;;;;4964492;28;20035;-79
2023/10/12 07:04:53;;;;;;;10.13;5.25;;;15.70;99.90;;;;;;4960191;28;20125;-80
2023/10/12 07:07:29;;;;;;;12.32;6.78;;;15.70;99.90;;;;;;4955489;28;20027;-79
2023/10/12 07:10:13;;;;;;;10.27;6.15;;;15.60;99.90;;;;;;4960086;28;20314;-80
2023/10/12 07:12:49;;;;;;;14.10;6.18;;;15.60;99.90;;;;;;4973381;28;20177;-80
2023/10/12 07:15:22;;;;;;;9.95;5.85;;;15.60;99.90;;;;;;4962521;28;20382;-80
2023/10/12 07:17:51;;;;;;;13.23;7.97;;;15.70;99.90;;;;;;4957854;28;20148;-80
2023/10/12 07:23:10;;;;;;;14.70;7.10;;;15.70;99.90;;;;;;4958794;28;20022;-80
2023/10/12 07:25:36;;;;;;;13.52;5.63;;;15.70;99.90;;;;;;4962195;28;20073;-80
2023/10/12 07:28:02;;;;;;;10.18;6.40;;;15.70;99.90;;;;;;4956371;28;20030;-79
2023/10/12 07:30:33;;;;;;;12.13;6.30;;;15.70;99.90;;;;;;4974814;28;20390;-79
2023/10/12 07:33:04;;;;;;;11.20;6.32;;;15.70;99.90;;;;;;4960187;28;20027;-79
2023/10/12 07:35:42;;;;;;;11.70;6.35;;;15.70;99.90;;;;;;4971738;28;20030;-79
2023/10/12 07:38:27;;;;;;;10.63;6.13;;;15.70;99.90;;;;;;4956359;28;20453;-79
2023/10/12 07:41:00;;;;;;;13.18;6.78;;;15.80;99.90;;;;;;4957954;28;20049;-79
2023/10/12 07:43:26;;;;;;;12.32;7.05;;;15.80;99.90;;;;;;4967479;28;20685;-79
2023/10/12 07:45:52;;;;;;;13.35;6.90;;;15.70;99.90;;;;;;4955748;28;20026;-80
2023/10/12 07:48:39;;;;;;;14.70;5.78;;;15.70;99.90;;;;;;4957279;28;20061;-79
2023/10/12 07:51:16;;;;;;;7.93;4.65;;;15.80;99.90;;;;;;4947379;28;20487;-80
2023/10/12 07:53:44;;;;;;;12.50;6.20;;;15.70;99.90;;;;;;4973721;28;20513;-79
2023/10/12 07:56:15;;;;;;;15.52;7.72;;;15.80;99.90;;;;;;4974052;28;20038;-79
2023/10/12 07:58:42;;;;;;;12.75;6.35;;;15.80;99.90;;;;;;4972273;28;20128;-80
2023/10/12 08:01:54;;;;;;;15.85;8.20;;;15.80;99.90;;;;;;4954038;28;20042;-79
2023/10/12 08:03:58;;;;;;;12.93;6.38;;;15.80;99.90;;;;;;4973382;28;20026;-80
2023/10/12 08:06:31;;;;;;;7.00;4.32;;;15.80;99.90;;;;;;4960832;28;20248;-79
2023/10/12 08:09:10;;;;;;;12.40;5.78;;;15.80;99.90;;;;;;4960383;28;20045;-80
2023/10/12 08:11:39;;;;;;;12.98;7.80;;;15.90;99.90;;;;;;4958292;28;20034;-80
2023/10/12 08:17:24;;;;;;;13.65;7.03;;;15.90;99.90;;;;;;4975881;28;20079;-79
2023/10/12 08:19:39;;;;;;;13.27;7.20;;;15.90;99.90;;;;;;4979916;28;20558;-80
2023/10/12 08:22:14;;;;;;;10.40;6.47;;;16.00;99.90;;;;;;4971274;28;20027;-79
2023/10/12 08:24:40;;;;;;;10.30;6.40;;;16.00;99.90;;;;;;4958677;28;20050;-80
2023/10/12 08:27:06;;;;;;;13.65;7.57;;;16.00;99.90;;;;;;4961589;28;20113;-80
2023/10/12 08:32:12;;;;;;;13.15;7.18;;;16.10;99.90;;;;;;4974510;28;20034;-79
2023/10/12 08:39:37;;;;;;;12.18;6.20;;;16.20;99.90;;;;;;4974847;28;20061;-79
2023/10/12 08:44:59;;;;;;;13.05;7.00;;;16.20;99.90;;;;;;4982239;28;20042;-80
2023/10/12 08:47:27;;;;;;;13.88;7.15;;;16.30;99.90;;;;;;4962548;28;20033;-79
2023/10/12 08:49:53;;;;;;;6.82;4.07;;;16.30;99.90;;;;;;4943919;28;20117;-80
2023/10/12 08:52:20;;;;;;;13.38;5.57;;;16.30;99.90;;;;;;4972955;28;20088;-79
2023/10/12 08:54:51;;;;;;;10.95;5.63;;;16.30;99.90;;;;;;4978588;28;20038;-80
2023/10/12 08:57:20;;;;;;;14.40;6.10;;;16.30;99.90;;;;;;4945262;28;20038;-79
2023/10/12 09:00:20;;;;;;;9.57;5.20;;;16.30;99.90;;;;;;4975756;28;20069;-79
2023/10/12 09:02:38;;;;;;;14.60;4.47;;;16.30;99.90;;;;;;4976666;28;20046;-79
2023/10/12 09:05:10;;;;;;;14.02;7.80;;;16.40;99.90;;;;;;4976615;28;20034;-79
2023/10/12 09:07:45;;;;;;;10.48;5.93;;;16.30;99.90;;;;;;4975031;28;20084;-79
2023/10/12 09:10:36;;;;;;;11.75;5.85;;;16.30;99.90;;;;;;4963004;28;20041;-79
2023/10/12 09:12:56;;;;;;;16.37;6.67;;;16.40;99.90;;;;;;4959686;28;20034;-79
2023/10/12 09:15:30;;;;;;;12.57;6.28;;;16.40;99.90;;;;;;4958694;28;20035;-79
2023/10/12 09:17:56;;;;;;;14.25;5.68;;;16.40;99.90;;;;;;4959451;28;20112;-80
2023/10/12 09:20:28;;;;;;;12.43;6.65;;;16.40;99.90;;;;;;4977489;28;20575;-79
2023/10/12 09:22:58;;;;;;;11.63;7.22;;;16.50;99.90;;;;;;4974195;28;20590;-79
2023/10/12 09:28:14;;;;;;;11.27;5.40;;;16.50;99.90;;;;;;4968762;28;20030;-79
2023/10/12 09:30:44;;;;;;;11.05;6.57;;;16.50;99.90;;;;;;4976714;28;20080;-79
2023/10/12 09:33:44;;;;;;;10.55;6.43;;;16.50;99.90;;;;;;4965170;28;20031;-80
2023/10/12 09:36:00;;;;;;;14.85;6.57;;;16.50;99.90;;;;;;4979621;28;20048;-79
2023/10/12 09:38:30;;;;;;;18.40;6.63;;;16.60;99.90;;;;;;4975341;28;20113;-79
2023/10/12 09:40:59;;;;;;;11.30;6.28;;;16.60;99.90;;;;;;4963543;28;20046;-79
2023/10/12 09:43:25;;;;;;;12.07;6.95;;;16.70;99.90;;;;;;4957644;28;20033;-79
2023/10/12 09:46:05;;;;;;;12.32;6.32;;;16.70;99.90;;;;;;4974910;28;20026;-79
2023/10/12 09:48:38;;;;;;;11.48;5.60;;;16.90;99.90;;;;;;4975924;28;20438;-79
2023/10/12 09:51:06;;;;;;;12.27;6.68;;;16.80;99.90;;;;;;4961097;28;20061;-79
2023/10/12 09:53:40;;;;;;;9.65;5.90;;;17.00;99.90;;;;;;4963764;28;20034;-80
2023/10/12 09:56:15;;;;;;;13.95;6.28;;;17.10;99.90;;;;;;4974238;28;20514;-80
2023/10/12 09:58:51;;;;;;;11.07;5.53;;;17.20;99.90;;;;;;4987512;28;20035;-81
2023/10/12 10:01:29;;;;;;;11.25;6.00;;;17.20;99.90;;;;;;4965869;28;20128;-81
2023/10/12 10:04:06;;;;;;;10.15;5.03;;;17.40;99.90;;;;;;4971311;28;20034;-80
2023/10/12 10:06:37;;;;;;;12.60;5.68;;;17.60;99.90;;;;;;4960761;28;20041;-81
2023/10/12 10:11:57;;;;;;;13.32;6.47;;;17.70;99.90;;;;;;4951577;28;20095;-81
2023/10/12 10:14:26;;;;;;;13.68;4.78;;;17.70;99.90;;;;;;4959758;28;20474;-80
2023/10/12 10:16:58;;;;;;;8.25;5.47;;;17.80;99.90;;;;;;4959681;28;20872;-80
2023/10/12 10:19:28;;;;;;;17.85;7.13;;;17.90;99.90;;;;;;4991498;28;20037;-80
2023/10/12 10:22:05;;;;;;;9.65;4.53;;;17.80;99.90;;;;;;4979056;28;20088;-80
2023/10/12 10:24:55;;;;;;;11.43;5.53;;;17.90;99.90;;;;;;4974355;28;20043;-81
2023/10/12 10:27:36;;;;;;;12.95;6.43;;;17.90;99.90;;;;;;4973092;28;20042;-80
2023/10/12 10:30:36;;;;;;;17.02;7.07;;;18.00;99.90;;;;;;4972572;28;20038;-81
2023/10/12 10:33:22;;;;;;;12.63;5.45;;;18.10;99.90;;;;;;4972809;28;20034;-79
2023/10/12 10:36:10;;;;;;;10.95;5.70;;;18.10;99.90;;;;;;4972459;28;20502;-80
2023/10/12 10:38:39;;;;;;;11.60;5.85;;;18.20;99.90;;;;;;4957260;28;20038;-80
2023/10/12 10:41:06;;;;;;;16.50;5.47;;;18.20;99.90;;;;;;4959744;28;20114;-79
2023/10/12 10:43:37;;;;;;;13.13;7.00;;;18.10;99.90;;;;;;4974062;28;20026;-79
2023/10/12 10:46:06;;;;;;;13.18;7.35;;;18.10;99.90;;;;;;4959226;28;20620;-79
2023/10/12 10:48:36;;;;;;;10.90;6.00;;;18.20;99.90;;;;;;4952879;28;20039;-79
2023/10/12 10:51:07;;;;;;;13.43;6.00;;;18.20;99.90;;;;;;4954892;28;20042;-79
2023/10/12 10:53:36;;;;;;;15.77;6.47;;;18.30;99.90;;;;;;4971596;28;20035;-79
2023/10/12 10:56:15;;;;;;;13.35;5.80;;;18.40;99.90;;;;;;4972592;28;20034;-79
2023/10/12 10:58:41;;;;;;;14.10;6.30;;;18.30;99.90;;;;;;4970478;28;20106;-80
2023/10/12 11:01:20;;;;;;;12.00;5.95;;;18.50;99.90;;;;;;4972874;28;20420;-80
2023/10/12 11:03:48;;;;;;;13.13;6.60;;;18.40;99.90;;;;;;4956675;28;20046;-80
2023/10/12 11:06:23;;;;;;;12.30;5.97;;;18.50;99.90;;;;;;4956883;28;20097;-79
2023/10/12 11:09:08;;;;;;;17.20;7.40;;;18.50;99.90;;;;;;4942700;28;20120;-79
2023/10/12 11:11:58;;;;;;;15.32;6.60;;;18.40;99.90;;;;;;4978114;28;20057;-79
2023/10/12 11:14:22;;;;;;;15.73;6.28;;;18.40;99.90;;;;;;4974602;28;20410;-79
2023/10/12 11:16:48;;;;;;;19.08;6.38;;;18.50;99.90;;;;;;4960285;28;20053;-79
2023/10/12 11:19:13;;;;;;;14.25;6.28;;;18.50;99.90;;;;;;4972676;28;20060;-79
2023/10/12 11:21:46;;;;;;;13.02;5.45;;;18.60;99.90;;;;;;4974484;28;20137;-79
2023/10/12 11:24:13;;;;;;;15.35;7.95;;;18.60;99.90;;;;;;4970781;28;20364;-79
2023/10/12 11:26:55;;;;;;;14.82;6.35;;;18.70;99.90;;;;;;4975314;28;20556;-79
2023/10/12 11:29:22;;;;;;;11.70;5.10;;;18.80;99.90;;;;;;4973886;28;20034;-79
2023/10/12 11:32:16;;;;;;;14.15;5.68;;;18.80;99.90;;;;;;4962398;28;20510;-78
2023/10/12 11:34:44;;;;;;;9.40;5.68;;;18.80;99.90;;;;;;4946200;28;20058;-79
2023/10/12 11:37:13;;;;;;;16.15;5.55;;;18.90;99.90;;;;;;4960289;28;20490;-79
2023/10/12 11:39:49;;;;;;;12.77;6.25;;;18.90;99.90;;;;;;4971627;28;20040;-79
2023/10/12 11:42:14;;;;;;;16.98;7.00;;;18.90;99.90;;;;;;4960130;28;20498;-79
2023/10/12 11:44:44;;;;;;;11.32;5.95;;;19.00;99.90;;;;;;4976768;28;20042;-81
2023/10/12 11:47:37;;;;;;;16.88;6.78;;;19.00;99.90;;;;;;4957472;28;20042;-79
2023/10/12 11:50:03;;;;;;;20.13;7.55;;;19.00;99.90;;;;;;4967105;28;20633;-79
2023/10/12 11:52:30;;;;;;;9.77;6.15;;;19.10;99.90;;;;;;4969911;28;20445;-79
2023/10/12 11:55:03;;;;;;;30.63;8.75;;;19.10;99.90;;;;;;4950903;28;20539;-81
2023/10/12 11:57:28;;;;;;;15.43;6.80;;;19.10;99.90;;;;;;4982961;28;20035;-79
2023/10/12 11:59:54;;;;;;;16.60;8.02;;;19.00;99.90;;;;;;4961060;28;20050;-81
2023/10/12 12:02:22;;;;;;;12.43;5.88;;;19.00;99.90;;;;;;4954767;28;20031;-81
2023/10/12 12:04:50;;;;;;;14.98;6.75;;;18.90;99.90;;;;;;4963025;28;20038;-81
2023/10/12 12:07:15;;;;;;;16.52;6.28;;;18.90;99.90;;;;;;4962638;28;20033;-79
2023/10/12 12:09:43;;;;;;;11.48;5.75;;;18.90;99.90;;;;;;4961389;28;20046;-79
2023/10/12 12:12:16;;;;;;;12.52;5.70;;;18.90;99.90;;;;;;4960957;28;20081;-79
2023/10/12 12:14:48;;;;;;;12.77;6.35;;;19.00;99.90;;;;;;4963372;28;20045;-79
2023/10/12 12:17:16;;;;;;;13.90;6.28;;;19.10;99.90;;;;;;4959544;28;20055;-78
2023/10/12 12:19:42;;;;;;;13.32;6.10;;;19.00;99.90;;;;;;4959764;28;20108;-79
2023/10/12 12:22:13;;;;;;;10.93;5.60;;;19.00;99.90;;;;;;4975552;28;20498;-79
2023/10/12 12:24:41;;;;;;;18.70;6.32;;;19.00;99.90;;;;;;4960728;28;20034;-80
2023/10/12 12:27:22;;;;;;;12.57;6.80;;;19.00;99.90;;;;;;4974155;28;20498;-80
2023/10/12 12:29:48;;;;;;;14.05;6.90;;;19.00;99.90;;;;;;4976113;28;20066;-79
2023/10/12 12:32:15;;;;;;;13.07;6.13;;;18.90;99.90;;;;;;4960006;28;20088;-79
2023/10/12 12:34:47;;;;;;;13.38;7.47;;;18.90;99.90;;;;;;4957894;28;20567;-79
2023/10/12 12:37:16;;;;;;;15.48;7.57;;;18.90;99.90;;;;;;4959014;28;20035;-80
2023/10/12 12:39:42;;;;;;;16.80;7.60;;;18.90;99.90;;;;;;4965295;28;20375;-80
2023/10/12 12:42:11;;;;;;;18.45;8.38;;;18.80;99.90;;;;;;4978403;28;20037;-77
2023/10/12 12:44:39;;;;;;;16.67;8.57;;;18.90;99.90;;;;;;4976446;28;20411;-79
2023/10/12 12:47:06;;;;;;;14.55;8.23;;;19.00;99.90;;;;;;4960451;28;20030;-80
2023/10/12 12:49:32;;;;;;;16.80;8.15;;;19.00;99.90;;;;;;4960651;28;20038;-80
2023/10/12 12:51:58;;;;;;;12.95;7.25;;;19.00;99.90;;;;;;4980802;28;20718;-80
2023/10/12 12:54:24;;;;;;;17.05;7.85;;;19.10;99.90;;;;;;4978502;28;20088;-80
2023/10/12 12:56:53;;;;;;;21.35;7.97;;;19.20;99.90;;;;;;4960501;28;20462;-78
2023/10/12 12:59:21;;;;;;;13.43;6.75;;;19.20;99.90;;;;;;4962319;28;20058;-79
2023/10/12 13:01:47;;;;;;;16.05;8.07;;;19.30;99.90;;;;;;4956800;28;20042;-79
2023/10/12 13:04:17;;;;;;;14.15;7.63;;;19.30;99.90;;;;;;4963170;28;20038;-79
2023/10/12 13:06:43;;;;;;;16.50;7.50;;;19.30;99.90;;;;;;4962846;28;20033;-78
2023/10/12 13:09:28;;;;;;;15.50;8.57;;;19.30;99.90;;;;;;4976172;28;20041;-79
2023/10/12 13:11:58;;;;;;;15.88;9.20;;;19.20;99.90;;;;;;4951473;28;20034;-79
2023/10/12 13:14:24;;;;;;;14.27;8.50;;;19.20;99.90;;;;;;4947039;28;20053;-78
2023/10/12 13:16:50;;;;;;;16.88;8.88;;;19.20;99.90;;;;;;4963388;28;20494;-78
2023/10/12 13:19:17;;;;;;;15.50;8.57;;;19.20;99.90;;;;;;4958486;28;20434;-79
2023/10/12 13:21:44;;;;;;;13.73;7.07;;;19.20;99.90;;;;;;4961322;28;20510;-80
2023/10/12 13:24:13;;;;;;;10.63;7.78;;;19.20;99.90;;;;;;4960348;28;20473;-79
2023/10/12 13:26:43;;;;;;;16.38;6.95;;;19.30;99.90;;;;;;4966200;28;20038;-79
2023/10/12 13:29:13;;;;;;;12.05;7.40;;;19.20;99.90;;;;;;4973952;28;20501;-79
2023/10/12 13:31:39;;;;;;;12.48;7.15;;;19.20;99.90;;;;;;4960890;28;20394;-79
2023/10/12 13:34:05;;;;;;;13.45;6.70;;;19.20;99.90;;;;;;4960374;28;20403;-79
2023/10/12 13:36:32;;;;;;;14.52;8.65;;;19.20;99.90;;;;;;4975864;28;20037;-80
2023/10/12 13:38:59;;;;;;;13.52;7.80;;;19.20;99.90;;;;;;4946365;28;20038;-79
2023/10/12 13:41:25;;;;;;;11.80;7.40;;;19.30;99.90;;;;;;4958697;28;20039;-79
2023/10/12 13:43:51;;;;;;;11.15;6.78;;;19.20;99.90;;;;;;4974052;28;20030;-79
2023/10/12 13:46:16;;;;;;;12.25;6.88;;;19.20;99.90;;;;;;4957460;28;20046;-78
2023/10/12 13:48:42;;;;;;;11.15;6.88;;;19.20;99.90;;;;;;4982112;28;20045;-79
2023/10/12 13:51:08;;;;;;;11.00;6.47;;;19.20;99.90;;;;;;4974270;28;20038;-79
2023/10/12 13:53:36;;;;;;;14.60;6.72;;;19.10;99.90;;;;;;4976385;28;20028;-79
2023/10/12 13:56:07;;;;;;;10.57;6.60;;;19.10;99.90;;;;;;4960162;28;20054;-80
2023/10/12 13:58:34;;;;;;;9.60;6.45;;;19.20;99.90;;;;;;4965300;28;20446;-79
2023/10/12 14:01:03;;;;;;;12.30;7.03;;;19.20;99.90;;;;;;4960529;28;20089;-79
2023/10/12 14:03:34;;;;;;;12.15;7.25;;;19.20;99.90;;;;;;4974315;28;20034;-80
2023/10/12 14:06:00;;;;;;;12.73;6.43;;;19.20;99.90;;;;;;4961408;28;20118;-80
2023/10/12 14:08:28;;;;;;;10.65;7.28;;;19.20;99.90;;;;;;4978933;28;20034;-81
2023/10/12 14:10:54;;;;;;;14.05;7.38;;;19.20;99.90;;;;;;4981481;28;20038;-80
2023/10/12 14:13:19;;;;;;;14.70;7.90;;;19.20;99.90;;;;;;4981586;28;20044;-79
2023/10/12 14:15:46;;;;;;;8.35;5.95;;;19.30;99.90;;;;;;4960615;28;20491;-78
2023/10/12 14:18:18;;;;;;;11.35;6.22;;;19.20;99.90;;;;;;4977827;28;20443;-79
2023/10/12 14:20:44;;;;;;;13.07;6.30;;;19.30;99.90;;;;;;4959162;28;20143;-80
2023/10/12 14:23:16;;;;;;;12.02;6.65;;;19.20;99.90;;;;;;4957100;28;20062;-79
2023/10/12 14:25:42;;;;;;;12.25;7.15;;;19.20;99.90;;;;;;4932342;28;20406;-80
2023/10/12 14:28:09;;;;;;;10.18;5.45;;;19.20;99.90;;;;;;4961032;28;20045;-79
2023/10/12 14:30:36;;;;;;;13.95;6.15;;;19.20;99.90;;;;;;4961607;28;20462;-79